Time;durP1;ratioP1;P1;durP2;ratioP2;P2;SDS_P1;SDS_P2;PMS_P1;PMS_P2;Temp;Humidity;BMP_temperature;BMP_pressure;BME280_temperature;BME280_humidity;BME280_pressure;Samples;Min_cycle;Max_cycle;Signal;HPM_P1;HPM_P2
2021/12/05 00:24:16;;;;;;;6.93;1.93;;;;;;;11.41;52.64;99729.09;5051438;28;20054;-69
2021/12/05 00:26:49;;;;;;;8.30;2.20;;;;;;;11.86;50.58;99725.91;5046182;28;20498;-69
2021/12/05 00:43:07;;;;;;;7.47;2.30;;;;;;;10.86;53.94;99708.94;5057769;28;20560;-69
2021/12/05 01:01:41;;;;;;;7.47;2.10;;;;;;;12.11;51.25;99701.56;5068447;28;20044;-69
2021/12/05 01:09:26;;;;;;;6.00;1.90;;;;;;;14.57;43.95;99698.06;5059570;28;20043;-69
2021/12/05 01:12:20;;;;;;;6.77;2.20;;;;;;;14.03;44.84;99711.75;5052171;28;20028;-69
2021/12/05 01:15:06;;;;;;;8.70;2.17;;;;;;;14.67;43.82;99702.03;5063101;28;20029;-69
2021/12/05 01:18:03;;;;;;;14.93;3.23;;;;;;;13.54;45.12;99709.38;5055315;28;20557;-70
2021/12/05 01:20:26;;;;;;;9.02;1.95;;;;;;;13.28;46.19;99706.91;5071102;28;20496;-69
2021/12/05 01:22:59;;;;;;;10.10;2.23;;;;;;;13.11;46.54;99702.31;5053789;28;20043;-69
2021/12/05 01:28:08;;;;;;;10.10;2.17;;;;;;;12.74;46.98;99704.56;5053159;28;20037;-69
2021/12/05 01:36:31;;;;;;;10.57;2.30;;;;;;;13.42;44.64;99707.25;4993339;28;20030;-70
2021/12/05 01:39:53;;;;;;;6.03;1.80;;;;;;;12.25;47.57;99715.03;4991570;28;20030;-69
2021/12/05 01:52:51;;;;;;;8.00;2.40;;;;;;;13.74;44.74;99713.00;5012242;28;20040;-69
2021/12/05 02:08:35;;;;;;;11.50;2.73;;;;;;;14.56;42.96;99704.25;5071228;28;20166;-69
2021/12/05 02:11:07;;;;;;;11.20;2.83;;;;;;;12.98;45.34;99702.81;5059442;28;20033;-69
2021/12/05 02:35:13;;;;;;;8.63;2.40;;;;;;;13.61;46.40;99704.72;5069533;28;20063;-69
2021/12/05 02:38:10;;;;;;;15.13;2.67;;;;;;;13.43;46.55;99702.88;5068416;28;20024;-69
2021/12/05 02:43:27;;;;;;;11.80;2.20;;;;;;;12.39;50.03;99696.19;5052641;28;20194;-69
2021/12/05 02:45:54;;;;;;;11.43;2.40;;;;;;;12.97;47.10;99698.47;5042529;28;20025;-69
2021/12/05 02:48:22;;;;;;;16.93;2.97;;;;;;;13.02;47.49;99693.91;5033674;28;20029;-69
2021/12/05 02:50:48;;;;;;;7.33;1.97;;;;;;;11.97;50.36;99692.41;5037075;28;20017;-69
2021/12/05 02:53:32;;;;;;;11.50;2.90;;;;;;;13.03;48.52;99698.22;5051295;28;20029;-69
2021/12/05 02:56:00;;;;;;;9.53;3.13;;;;;;;12.82;47.92;99706.91;5061768;28;20013;-69
2021/12/05 03:03:30;;;;;;;10.23;2.70;;;;;;;13.41;47.54;99687.19;5070691;28;20113;-69
2021/12/05 03:06:04;;;;;;;12.67;2.87;;;;;;;13.05;47.51;99690.28;5039630;28;20060;-69
2021/12/05 03:08:30;;;;;;;9.07;2.90;;;;;;;13.06;48.38;99690.25;5053538;28;20020;-69
2021/12/05 03:10:57;;;;;;;19.53;3.03;;;;;;;13.04;47.82;99692.06;5033378;28;20052;-69
2021/12/05 03:13:23;;;;;;;17.00;3.30;;;;;;;12.89;48.78;99692.66;5055104;28;20480;-69
2021/12/05 03:15:49;;;;;;;15.17;3.53;;;;;;;13.04;49.15;99697.31;5038746;28;20062;-69
2021/12/05 03:18:15;;;;;;;11.20;2.67;;;;;;;12.34;49.42;99699.00;5052658;28;20043;-69
2021/12/05 03:20:41;;;;;;;7.40;2.80;;;;;;;13.07;48.04;99694.56;5051482;28;20052;-69
2021/12/05 03:23:06;;;;;;;11.07;3.10;;;;;;;13.06;47.79;99695.50;5058212;28;20059;-69
2021/12/05 03:25:32;;;;;;;10.63;3.00;;;;;;;12.55;48.43;99699.13;5051097;28;20029;-69
2021/12/05 03:27:58;;;;;;;7.33;2.93;;;;;;;12.37;49.13;99693.63;5068880;28;20031;-69
2021/12/05 03:30:26;;;;;;;8.53;3.27;;;;;;;12.60;49.63;99694.59;5063993;28;20032;-69
2021/12/05 03:32:53;;;;;;;6.53;2.73;;;;;;;11.97;50.93;99699.41;5066929;28;20063;-69
2021/12/05 03:35:21;;;;;;;7.60;3.10;;;;;;;12.04;51.35;99693.91;5064559;28;20539;-69
2021/12/05 03:37:51;;;;;;;8.80;2.40;;;;;;;11.93;51.00;99700.41;5048786;28;20473;-69
2021/12/05 03:40:21;;;;;;;8.70;3.43;;;;;;;13.27;47.48;99703.44;5056521;28;20025;-69
2021/12/05 03:42:50;;;;;;;8.77;3.07;;;;;;;13.05;47.11;99696.41;5048581;28;20029;-69
2021/12/05 03:45:21;;;;;;;7.10;3.10;;;;;;;14.00;45.93;99705.78;5032723;28;20492;-70
2021/12/05 03:47:47;;;;;;;7.43;2.50;;;;;;;12.13;49.87;99715.44;5050577;28;20357;-69
2021/12/05 03:50:13;;;;;;;5.67;3.20;;;;;;;12.43;49.87;99699.56;5041401;28;20116;-69
2021/12/05 03:52:40;;;;;;;7.97;2.80;;;;;;;12.01;51.24;99707.09;5052182;28;20026;-69
2021/12/05 03:55:08;;;;;;;7.03;2.47;;;;;;;13.28;47.29;99714.78;5034681;28;20068;-70
2021/12/05 03:57:33;;;;;;;5.97;3.43;;;;;;;12.73;49.89;99714.22;5033720;28;20099;-69
2021/12/05 03:59:59;;;;;;;9.30;3.03;;;;;;;12.16;49.72;99707.50;5042626;28;20559;-69
2021/12/05 04:02:24;;;;;;;8.23;3.67;;;;;;;11.40;54.28;99714.31;5035550;28;20079;-69
2021/12/05 04:04:50;;;;;;;5.37;3.37;;;;;;;11.64;52.58;99718.75;5042313;28;20082;-69
2021/12/05 04:07:16;;;;;;;7.23;3.40;;;;;;;11.05;53.09;99721.47;5041032;28;20488;-69
2021/12/05 04:09:42;;;;;;;5.07;3.30;;;;;;;11.71;52.04;99719.41;5041363;28;20283;-69
2021/12/05 04:12:09;;;;;;;12.07;3.00;;;;;;;12.48;48.98;99719.47;5031805;28;20471;-69
2021/12/05 04:14:44;;;;;;;5.70;2.70;;;;;;;11.18;53.50;99728.03;5050982;28;20052;-69
2021/12/05 04:17:12;;;;;;;6.63;2.60;;;;;;;11.54;51.29;99727.81;5048972;28;20416;-69
2021/12/05 04:19:38;;;;;;;3.37;2.60;;;;;;;12.02;49.41;99724.53;5049044;28;20378;-69
2021/12/05 04:22:05;;;;;;;5.70;2.50;;;;;;;11.79;50.19;99727.03;5031275;28;20107;-69
2021/12/05 04:24:32;;;;;;;5.73;2.57;;;;;;;11.43;52.39;99724.66;5039416;28;20377;-69
2021/12/05 04:26:57;;;;;;;6.57;3.00;;;;;;;11.64;51.22;99721.38;5040013;28;20404;-70
2021/12/05 04:29:23;;;;;;;5.57;2.37;;;;;;;12.73;47.76;99726.44;5048428;28;20040;-70
2021/12/05 04:31:49;;;;;;;3.57;2.40;;;;;;;12.55;48.28;99727.97;5061545;28;20434;-70
2021/12/05 04:34:15;;;;;;;6.07;2.43;;;;;;;13.72;45.95;99720.94;5039851;28;20078;-68
2021/12/05 04:36:43;;;;;;;5.53;2.77;;;;;;;13.30;45.86;99720.81;5048951;28;20064;-69
2021/12/05 04:39:09;;;;;;;3.47;2.57;;;;;;;13.95;45.42;99729.63;5034640;28;20119;-69
2021/12/05 04:41:38;;;;;;;4.53;2.40;;;;;;;12.62;48.38;99729.44;5059558;28;20495;-68
2021/12/05 04:44:04;;;;;;;7.73;2.20;;;;;;;10.54;55.43;99734.22;5048951;28;20574;-68
2021/12/05 04:46:30;;;;;;;6.27;3.03;;;;;;;11.43;54.29;99735.13;5044616;28;20036;-68
2021/12/05 04:48:57;;;;;;;5.13;2.83;;;;;;;10.87;55.74;99736.78;5066077;28;20040;-68
2021/12/05 04:51:31;;;;;;;8.20;3.23;;;;;;;11.40;55.32;99724.75;5031683;28;20033;-68
2021/12/05 04:53:57;;;;;;;6.67;3.23;;;;;;;10.60;56.69;99736.66;5031481;28;20025;-68
2021/12/05 04:56:23;;;;;;;5.33;3.23;;;;;;;11.30;55.61;99734.66;5055369;28;20024;-68
2021/12/05 04:58:49;;;;;;;3.77;2.50;;;;;;;10.87;56.08;99742.03;5050738;28;20032;-68
2021/12/05 05:01:15;;;;;;;6.40;3.07;;;;;;;10.89;54.93;99740.19;5069885;28;20533;-68
2021/12/05 05:03:40;;;;;;;4.17;2.53;;;;;;;11.66;52.86;99737.03;5051936;28;20033;-68
2021/12/05 05:06:12;;;;;;;6.17;3.03;;;;;;;11.75;53.60;99736.75;5050392;28;20054;-68
2021/12/05 05:08:38;;;;;;;5.70;3.27;;;;;;;12.51;52.22;99742.09;5069088;28;20032;-68
2021/12/05 05:11:07;;;;;;;8.83;4.00;;;;;;;14.83;45.43;99732.91;5041742;28;20396;-69
2021/12/05 05:13:33;;;;;;;7.47;3.60;;;;;;;13.53;46.30;99744.44;5067927;28;20097;-68
2021/12/05 05:15:58;;;;;;;10.47;4.13;;;;;;;13.50;46.22;99748.94;5049886;28;20127;-69
2021/12/05 05:18:29;;;;;;;7.93;3.60;;;;;;;13.82;45.13;99749.44;5031494;28;20499;-68
2021/12/05 05:21:08;;;;;;;8.07;3.40;;;;;;;13.33;46.52;99757.47;5043308;28;20053;-68
2021/12/05 05:23:52;;;;;;;5.43;2.77;;;;;;;12.76;46.83;99752.53;5033840;28;20096;-68
2021/12/05 05:27:16;;;;;;;5.90;2.40;;;;;;;13.22;46.45;99765.75;5032481;28;20030;-68
2021/12/05 05:45:43;;;;;;;4.50;2.20;;;;;;;13.27;46.64;99773.41;5043102;28;20049;-68
2021/12/05 05:50:38;;;;;;;5.17;2.60;;;;;;;13.65;44.65;99782.47;5034751;28;20045;-69
2021/12/05 05:53:04;;;;;;;3.87;2.23;;;;;;;13.78;43.83;99781.97;5035410;28;20021;-68
2021/12/05 05:55:30;;;;;;;3.73;2.60;;;;;;;14.01;44.10;99781.94;5046866;28;20021;-68
2021/12/05 05:58:03;;;;;;;5.43;2.47;;;;;;;14.49;43.00;99776.44;5050849;28;20076;-68
2021/12/05 06:00:34;;;;;;;3.20;2.45;;;;;;;14.22;43.91;99787.22;5050660;28;20032;-69
2021/12/05 06:05:58;;;;;;;7.43;2.60;;;;;;;14.70;42.99;99796.59;5035643;28;20087;-68
2021/12/05 06:08:26;;;;;;;4.13;2.50;;;;;;;14.38;43.89;99801.44;5032420;28;20091;-68
2021/12/05 06:10:54;;;;;;;6.77;2.57;;;;;;;14.06;44.45;99800.13;5030568;28;20083;-68
2021/12/05 06:13:21;;;;;;;6.33;2.43;;;;;;;14.40;43.06;99804.81;5052299;28;20037;-69
2021/12/05 06:15:48;;;;;;;7.73;3.23;;;;;;;13.21;45.68;99801.59;5035880;28;20022;-68
2021/12/05 06:18:14;;;;;;;5.77;2.83;;;;;;;13.99;43.32;99799.50;5031055;28;20070;-68
2021/12/05 06:20:41;;;;;;;8.10;2.97;;;;;;;13.18;45.50;99812.22;5040902;28;20053;-68
2021/12/05 06:23:07;;;;;;;7.27;2.47;;;;;;;13.50;45.24;99806.69;5049127;28;20032;-68
2021/12/05 06:25:35;;;;;;;5.97;2.90;;;;;;;14.34;43.32;99815.63;5040693;28;20501;-68
2021/12/05 06:28:08;;;;;;;6.10;3.27;;;;;;;14.34;43.80;99826.13;5031530;28;20037;-68
2021/12/05 06:30:49;;;;;;;6.33;3.07;;;;;;;14.39;42.81;99833.81;5045387;28;20265;-68
2021/12/05 06:46:53;;;;;;;6.13;3.17;;;;;;;13.90;43.90;99852.41;5031689;28;20446;-68
2021/12/05 06:49:18;;;;;;;3.90;2.30;;;;;;;14.71;42.47;99856.16;5035689;28;20057;-68
2021/12/05 06:51:43;;;;;;;6.17;2.63;;;;;;;13.94;43.46;99855.78;5041903;28;20025;-68
2021/12/05 06:54:09;;;;;;;4.73;2.63;;;;;;;12.71;47.03;99860.22;5037255;28;20114;-68
2021/12/05 06:56:34;;;;;;;4.53;2.43;;;;;;;12.22;49.16;99867.09;5036270;28;20028;-68
2021/12/05 06:59:01;;;;;;;3.83;2.23;;;;;;;11.46;50.98;99861.50;5050322;28;20591;-68
2021/12/05 07:01:26;;;;;;;5.13;2.57;;;;;;;11.94;50.93;99873.22;5043306;28;20025;-68
2021/12/05 07:03:52;;;;;;;4.70;3.03;;;;;;;13.72;45.68;99865.38;5030492;28;20028;-68
2021/12/05 07:06:26;;;;;;;5.57;2.80;;;;;;;15.36;41.31;99858.59;5046345;28;20029;-68
2021/12/05 07:08:55;;;;;;;6.43;2.57;;;;;;;14.24;43.01;99867.69;5048283;28;20111;-68
2021/12/05 07:11:29;;;;;;;4.17;2.40;;;;;;;13.74;44.27;99874.03;5049919;28;20048;-68
2021/12/05 07:22:26;;;;;;;5.43;3.37;;;;;;;14.18;43.01;99882.88;5048591;28;20476;-68
2021/12/05 07:25:03;;;;;;;8.53;3.27;;;;;;;14.50;42.95;99902.56;5034299;28;20032;-68
2021/12/05 07:41:19;;;;;;;9.87;3.67;;;;;;;15.33;41.88;99914.03;5069503;28;20051;-69
2021/12/05 07:43:44;;;;;;;10.93;4.40;;;;;;;15.15;41.32;99918.28;5032599;28;20473;-68
2021/12/05 07:46:10;;;;;;;10.93;4.63;;;;;;;15.46;41.69;99916.94;5032264;28;20040;-69
2021/12/05 07:48:38;;;;;;;9.80;4.53;;;;;;;14.93;43.15;99924.50;5050086;28;20063;-69
2021/12/05 07:51:14;;;;;;;9.00;4.77;;;;;;;15.00;42.33;99924.22;5045554;28;20032;-69
2021/12/05 07:59:25;;;;;;;7.77;4.47;;;;;;;14.55;42.84;99933.97;5030963;28;20048;-69
2021/12/05 08:15:40;;;;;;;5.80;3.40;;;;;;;14.80;43.46;99954.03;5055013;28;20039;-69
2021/12/05 08:18:05;;;;;;;6.87;3.80;;;;;;;14.31;43.52;99952.41;5050736;28;20151;-69
2021/12/05 08:20:37;;;;;;;9.33;3.83;;;;;;;14.08;45.32;99951.53;5070074;28;20560;-69
2021/12/05 08:23:04;;;;;;;8.17;3.83;;;;;;;14.15;45.17;99959.19;5068303;28;20048;-69
2021/12/05 08:25:33;;;;;;;6.73;3.87;;;;;;;15.04;42.34;99967.91;5066983;28;20036;-69
2021/12/05 08:28:57;;;;;;;6.83;3.70;;;;;;;15.49;41.97;99968.63;5051217;28;20450;-69
2021/12/05 08:31:00;;;;;;;7.00;3.87;;;;;;;15.86;40.86;99964.38;5057630;28;20029;-69
2021/12/05 08:33:40;;;;;;;5.80;3.20;;;;;;;16.01;40.39;99960.19;5069774;28;20037;-69
2021/12/05 09:24:48;;;;;;;10.37;4.53;;;;;;;15.37;41.50;100051.63;5059420;28;20086;-70
2021/12/05 10:13:01;;;;;;;4.70;3.10;;;;;;;16.64;40.46;100110.19;5052984;28;20040;-69
2021/12/05 10:18:23;;;;;;;5.30;3.20;;;;;;;16.47;41.00;100115.38;5055171;28;20033;-70
2021/12/05 10:27:25;;;;;;;3.97;2.33;;;;;;;14.95;43.76;100127.03;5068211;28;20055;-69
2021/12/05 10:38:14;;;;;;;4.83;2.90;;;;;;;16.40;40.39;100133.28;5057223;28;20041;-70
2021/12/05 10:40:40;;;;;;;3.63;2.30;;;;;;;16.50;40.66;100138.97;5050611;28;20037;-69
2021/12/05 10:43:16;;;;;;;3.37;2.10;;;;;;;16.14;40.62;100135.28;5050252;28;20040;-69
2021/12/05 10:45:48;;;;;;;3.97;2.23;;;;;;;16.00;40.81;100143.81;5046616;28;20035;-69
2021/12/05 10:48:26;;;;;;;;;;;;;;;15.94;41.43;100152.00;5051384;28;20794;-69
2021/12/05 10:51:13;;;;;;;4.20;2.40;;;;;;;15.77;42.25;100148.28;5033662;28;19951;-69
2021/12/05 10:53:46;;;;;;;5.27;2.50;;;;;;;15.41;42.24;100151.53;5035721;28;20036;-69
2021/12/05 10:56:14;;;;;;;5.80;2.80;;;;;;;15.61;42.04;100147.19;5045374;28;20024;-69
2021/12/05 10:58:44;;;;;;;5.37;3.23;;;;;;;16.56;40.78;100157.19;5051770;28;20020;-69
2021/12/05 11:01:15;;;;;;;3.47;2.67;;;;;;;16.47;40.46;100166.34;5039568;28;20265;-69
2021/12/05 11:03:42;;;;;;;3.80;3.00;;;;;;;16.43;40.09;100159.50;5053296;28;20456;-69
2021/12/05 11:06:17;;;;;;;4.73;3.10;;;;;;;16.76;40.48;100169.44;5038671;28;20479;-69
2021/12/05 11:08:43;;;;;;;3.33;2.60;;;;;;;15.39;41.77;100169.16;5052689;28;20032;-69
2021/12/05 11:11:11;;;;;;;5.93;3.40;;;;;;;15.53;41.56;100165.09;5068863;28;20078;-69
2021/12/05 11:13:39;;;;;;;4.47;2.73;;;;;;;16.24;41.45;100162.13;5052348;28;20051;-69
2021/12/05 11:16:44;;;;;;;5.83;2.80;;;;;;;16.34;40.81;100165.22;5065992;28;20428;-69
2021/12/05 11:19:25;;;;;;;5.10;3.83;;;;;;;16.75;40.12;100168.59;5053507;28;20538;-69
2021/12/05 11:21:54;;;;;;;3.83;2.83;;;;;;;16.01;41.47;100171.88;5032772;28;20037;-69
2021/12/05 11:24:22;;;;;;;5.47;3.37;;;;;;;16.17;41.68;100169.44;5050578;28;20503;-69
2021/12/05 11:27:16;;;;;;;4.20;3.10;;;;;;;16.54;41.24;100166.94;5049705;28;20396;-69
2021/12/05 11:30:03;;;;;;;4.83;3.40;;;;;;;17.35;38.93;100161.44;5033217;28;20029;-69
2021/12/05 11:32:38;;;;;;;5.27;3.13;;;;;;;15.72;41.93;100159.94;5041569;28;20146;-69
2021/12/05 11:35:12;;;;;;;5.30;3.77;;;;;;;16.63;40.23;100169.16;5067283;28;20043;-69
2021/12/05 11:37:55;;;;;;;3.63;3.33;;;;;;;16.20;41.79;100179.84;5072626;28;20059;-69
2021/12/05 11:40:22;;;;;;;5.47;3.80;;;;;;;17.38;38.89;100172.72;5090191;28;20038;-69
2021/12/05 11:43:02;;;;;;;6.00;3.87;;;;;;;17.63;38.70;100182.06;5057639;28;20032;-69
2021/12/05 11:45:29;;;;;;;9.43;4.10;;;;;;;17.21;38.77;100177.94;5051328;28;20033;-70
2021/12/05 11:47:58;;;;;;;7.10;4.60;;;;;;;18.01;37.57;100176.66;5069395;28;20028;-70
2021/12/05 11:50:35;;;;;;;7.70;4.27;;;;;;;16.94;39.88;100199.47;5070420;28;20037;-70
2021/12/05 11:53:01;;;;;;;8.60;6.17;;;;;;;17.13;39.47;100195.03;5038414;28;20083;-70
2021/12/05 11:55:28;;;;;;;12.47;6.93;;;;;;;15.98;41.65;100198.38;5066078;28;20025;-70
2021/12/05 11:57:54;;;;;;;9.33;5.17;;;;;;;16.75;40.74;100194.97;5051153;28;20044;-70
2021/12/05 12:00:21;;;;;;;13.23;7.30;;;;;;;16.65;39.65;100198.97;5049377;28;20024;-70
2021/12/05 12:02:49;;;;;;;23.30;10.20;;;;;;;17.18;39.70;100207.16;5050014;28;20044;-70
2021/12/05 12:05:22;;;;;;;17.80;8.33;;;;;;;16.77;39.80;100214.25;5036056;28;20040;-70
2021/12/05 12:07:57;;;;;;;20.77;7.63;;;;;;;17.76;38.82;100219.31;5056632;28;20452;-71
2021/12/05 12:10:22;;;;;;;21.23;9.27;;;;;;;17.27;38.40;100222.56;5051675;28;20036;-70
2021/12/05 12:12:56;;;;;;;21.03;8.30;;;;;;;17.71;38.10;100216.91;5045357;28;20440;-70
2021/12/05 12:15:24;;;;;;;26.67;9.90;;;;;;;18.10;37.23;100215.84;5031588;28;20025;-70
2021/12/05 12:17:52;;;;;;;23.93;9.00;;;;;;;15.84;41.78;100224.44;5048494;28;20029;-70
2021/12/05 12:20:22;;;;;;;21.17;8.17;;;;;;;17.15;39.65;100221.34;5031824;28;20043;-70
2021/12/05 12:22:49;;;;;;;25.03;9.77;;;;;;;17.02;39.88;100218.44;5042214;28;20021;-70
2021/12/05 12:25:19;;;;;;;23.83;9.30;;;;;;;16.70;40.46;100231.28;5035760;28;20420;-70
2021/12/05 12:27:47;;;;;;;25.10;8.77;;;;;;;16.40;41.17;100230.84;5041655;28;20554;-70
2021/12/05 12:30:15;;;;;;;28.23;10.27;;;;;;;16.71;40.43;100235.63;5042431;28;20021;-70
2021/12/05 12:32:48;;;;;;;26.13;10.17;;;;;;;15.69;42.48;100239.94;5036499;28;20472;-70
2021/12/05 12:35:17;;;;;;;26.85;8.23;;;;;;;16.48;40.70;100241.09;5044830;28;20037;-70
2021/12/05 12:38:12;;;;;;;22.80;8.43;;;;;;;15.69;41.91;100247.84;5048859;28;20111;-70
2021/12/05 12:40:44;;;;;;;21.23;8.57;;;;;;;15.78;41.14;100250.13;5051630;28;20476;-70
2021/12/05 12:43:48;;;;;;;24.57;9.17;;;;;;;16.57;40.43;100259.16;5068900;28;20024;-70
2021/12/05 12:46:40;;;;;;;28.60;10.50;;;;;;;16.23;40.70;100250.91;5045114;28;20032;-70
2021/12/05 12:49:15;;;;;;;26.73;10.60;;;;;;;16.83;39.86;100259.75;5037135;28;20385;-70
2021/12/05 12:52:04;;;;;;;24.93;9.40;;;;;;;15.97;41.33;100259.91;5042310;28;20567;-70
2021/12/05 12:54:55;;;;;;;31.80;11.13;;;;;;;17.12;39.12;100267.22;5047000;28;20025;-70
2021/12/05 12:57:29;;;;;;;26.37;9.23;;;;;;;15.13;42.57;100269.38;5042754;28;20037;-70
2021/12/05 12:59:56;;;;;;;23.83;9.57;;;;;;;13.94;45.36;100279.59;5039904;28;20054;-70
2021/12/05 13:02:37;;;;;;;27.63;10.90;;;;;;;15.58;42.68;100273.78;5056786;28;20761;-70
2021/12/05 13:05:23;;;;;;;27.10;11.63;;;;;;;17.85;38.30;100270.88;5037953;28;20104;-71
2021/12/05 13:10:45;;;;;;;29.97;10.77;;;;;;;17.95;37.61;100270.34;5063844;28;20040;-70
2021/12/05 13:13:27;;;;;;;27.53;12.17;;;;;;;16.83;39.21;100286.13;5043506;28;20048;-70
2021/12/05 13:15:59;;;;;;;25.45;10.45;;;;;;;17.05;38.97;100283.41;5065811;28;20028;-70
2021/12/05 13:18:36;;;;;;;25.55;10.77;;;;;;;16.90;39.39;100288.47;5051056;28;20033;-70
2021/12/05 13:21:11;;;;;;;21.40;8.70;;;;;;;16.54;39.91;100285.66;5049757;28;20453;-70
2021/12/05 13:23:47;;;;;;;22.30;10.07;;;;;;;16.47;41.31;100289.47;5036336;28;20058;-70
2021/12/05 13:26:14;;;;;;;20.13;8.80;;;;;;;17.34;38.34;100297.06;5035762;28;20040;-71
2021/12/05 13:28:51;;;;;;;25.80;11.30;;;;;;;16.47;40.85;100302.66;5047442;28;20036;-70
2021/12/05 13:31:28;;;;;;;23.70;9.87;;;;;;;18.04;37.41;100292.84;5054762;28;20029;-70
2021/12/05 13:34:21;;;;;;;23.37;9.87;;;;;;;17.53;38.28;100312.91;5036563;28;20078;-71
2021/12/05 13:36:50;;;;;;;;;;;;;;;18.98;35.69;100305.72;5041621;28;20481;-71
2021/12/05 13:39:30;;;;;;;25.00;10.03;;;;;;;18.33;36.63;100301.09;5057605;28;19958;-71
2021/12/05 13:42:27;;;;;;;33.73;10.97;;;;;;;18.16;37.42;100306.38;5060103;28;20388;-70
2021/12/05 13:44:58;;;;;;;29.23;11.50;;;;;;;17.57;37.74;100310.06;5048547;28;20413;-70
2021/12/05 13:47:29;;;;;;;22.70;10.33;;;;;;;17.30;38.15;100320.13;5038690;28;20097;-70
2021/12/05 13:49:56;;;;;;;23.97;9.93;;;;;;;17.16;37.93;100326.06;5042720;28;20414;-70
2021/12/05 13:52:32;;;;;;;33.67;11.60;;;;;;;18.09;36.65;100313.75;5057829;28;20024;-70
2021/12/05 13:55:41;;;;;;;28.60;12.93;;;;;;;17.98;37.32;100330.16;5037052;28;20044;-70
2021/12/05 13:58:17;;;;;;;32.37;13.07;;;;;;;17.78;37.71;100333.75;5040438;28;20033;-70
2021/12/05 14:00:59;;;;;;;35.83;14.00;;;;;;;17.19;38.79;100340.91;5039260;28;20061;-69
2021/12/05 14:03:47;;;;;;;35.58;13.18;;;;;;;18.07;37.21;100340.28;5038857;28;20032;-70
2021/12/05 14:06:33;;;;;;;23.03;9.83;;;;;;;16.30;39.62;100346.44;5040691;28;20493;-70
2021/12/05 14:09:12;;;;;;;25.47;9.03;;;;;;;14.99;43.05;100359.34;5038980;28;20087;-70
2021/12/05 14:11:51;;;;;;;29.00;10.67;;;;;;;14.48;44.85;100364.59;5036036;28;20061;-70
2021/12/05 14:14:21;;;;;;;25.33;9.77;;;;;;;15.03;43.35;100367.09;5043609;28;20070;-70
2021/12/05 14:16:50;;;;;;;24.10;9.17;;;;;;;16.17;41.25;100372.47;5035378;28;20090;-70
2021/12/05 14:19:19;;;;;;;22.80;9.80;;;;;;;17.81;37.22;100376.72;5017737;28;20143;-70
2021/12/05 14:21:52;;;;;;;19.70;8.97;;;;;;;17.86;36.89;100378.31;5045591;28;20060;-70
2021/12/05 14:24:20;;;;;;;17.90;7.88;;;;;;;17.51;37.48;100388.75;5038507;28;20028;-70
2021/12/05 14:26:50;;;;;;;25.37;9.03;;;;;;;17.63;37.90;100393.47;5068780;28;20067;-70
2021/12/05 14:29:19;;;;;;;36.13;13.67;;;;;;;17.48;37.55;100399.47;5040291;28;20108;-70
2021/12/05 14:31:53;;;;;;;25.00;9.80;;;;;;;18.04;37.19;100411.84;5056531;28;20116;-70
2021/12/05 14:34:20;;;;;;;25.97;11.20;;;;;;;17.57;36.87;100409.59;5035335;28;20048;-70
2021/12/05 14:36:56;;;;;;;26.07;10.30;;;;;;;17.31;37.63;100414.31;5040755;28;20044;-70
2021/12/05 14:39:48;;;;;;;22.33;9.70;;;;;;;17.64;37.90;100422.47;5051404;28;20036;-70
2021/12/05 14:42:17;;;;;;;19.17;8.13;;;;;;;16.68;38.40;100436.31;5036876;28;20130;-69
2021/12/05 14:44:45;;;;;;;19.73;9.33;;;;;;;16.21;40.29;100441.72;5049322;28;20116;-70
2021/12/05 14:47:15;;;;;;;24.97;10.23;;;;;;;18.18;36.58;100442.06;5043290;28;20063;-69
2021/12/05 14:49:44;;;;;;;26.63;13.67;;;;;;;17.74;36.92;100444.03;5052467;28;20459;-68
2021/12/05 14:52:15;;;;;;;21.17;10.93;;;;;;;18.02;36.45;100448.06;5066746;28;20396;-70
2021/12/05 14:54:42;;;;;;;20.10;10.60;;;;;;;18.04;36.28;100456.81;5063527;28;20488;-70
2021/12/05 14:57:29;;;;;;;19.33;9.13;;;;;;;18.67;35.47;100460.84;5046369;28;20430;-70
2021/12/05 15:00:12;;;;;;;18.40;9.27;;;;;;;18.05;36.38;100474.38;5060178;28;20488;-70
2021/12/05 15:02:39;;;;;;;22.30;9.40;;;;;;;17.83;37.11;100478.91;5035254;28;20024;-70
2021/12/05 15:05:09;;;;;;;24.33;10.40;;;;;;;18.58;35.94;100483.31;5045378;28;20130;-69
2021/12/05 15:07:35;;;;;;;22.07;8.90;;;;;;;18.27;36.33;100490.09;5041540;28;20033;-70
2021/12/05 15:10:00;;;;;;;19.60;9.20;;;;;;;16.85;38.34;100506.00;5041790;28;20087;-70
2021/12/05 15:12:32;;;;;;;19.97;10.07;;;;;;;16.62;40.17;100510.44;5047876;28;20039;-69
2021/12/05 15:15:01;;;;;;;19.15;9.38;;;;;;;17.28;38.42;100514.78;5045881;28;20025;-70
2021/12/05 15:17:39;;;;;;;25.67;11.30;;;;;;;17.43;38.60;100514.13;5046868;28;20081;-70
2021/12/05 15:20:15;;;;;;;20.83;10.63;;;;;;;17.81;37.71;100519.47;5042827;28;20048;-69
2021/12/05 15:22:44;;;;;;;21.43;9.97;;;;;;;18.17;36.46;100525.00;5048079;28;20154;-70
2021/12/05 15:25:16;;;;;;;24.00;11.40;;;;;;;18.18;36.98;100532.84;5046599;28;20025;-71
2021/12/05 15:27:42;;;;;;;28.02;12.07;;;;;;;18.13;36.86;100538.34;5065196;28;20083;-69
2021/12/05 15:30:14;;;;;;;45.07;21.07;;;;;;;18.23;36.63;100538.78;5046475;28;20464;-70
2021/12/05 15:32:40;;;;;;;26.73;12.33;;;;;;;16.21;39.43;100549.84;5057203;28;20035;-70
2021/12/05 15:35:11;;;;;;;20.03;10.10;;;;;;;15.90;42.59;100549.22;5039256;28;20033;-70
2021/12/05 15:37:37;;;;;;;21.93;10.53;;;;;;;17.36;38.20;100557.56;5059879;28;20136;-70
2021/12/05 15:40:05;;;;;;;18.33;8.90;;;;;;;17.77;37.73;100562.84;5037933;28;20461;-70
2021/12/05 15:42:34;;;;;;;16.97;8.40;;;;;;;16.34;39.43;100566.91;5040103;28;20033;-69
2021/12/05 15:45:08;;;;;;;18.97;8.40;;;;;;;15.69;41.94;100571.91;5044404;28;20116;-69
2021/12/05 15:47:35;;;;;;;16.33;7.90;;;;;;;17.19;37.99;100574.16;5047099;28;20153;-70
2021/12/05 15:50:04;;;;;;;17.70;8.67;;;;;;;17.42;37.63;100581.09;5052252;28;20036;-69
2021/12/05 15:52:39;;;;;;;18.17;7.97;;;;;;;16.09;39.99;100581.03;5051956;28;20033;-69
2021/12/05 15:55:18;;;;;;;17.33;8.67;;;;;;;16.28;40.88;100580.34;5059873;28;20020;-69
2021/12/05 15:57:48;;;;;;;16.73;7.00;;;;;;;15.59;40.87;100596.84;5048806;28;20044;-70
2021/12/05 16:00:22;;;;;;;14.90;7.90;;;;;;;16.18;41.89;100594.78;5067287;28;20032;-70
2021/12/05 16:02:56;;;;;;;19.03;7.73;;;;;;;15.53;41.42;100600.56;5045967;28;20023;-70
2021/12/05 16:05:22;;;;;;;18.27;7.97;;;;;;;14.18;44.31;100608.28;5040451;28;20473;-69
2021/12/05 16:07:49;;;;;;;16.00;7.83;;;;;;;13.69;45.95;100616.56;5043837;28;20024;-69
2021/12/05 16:10:18;;;;;;;17.50;8.23;;;;;;;14.58;45.09;100617.63;5044040;28;20035;-69
2021/12/05 16:12:46;;;;;;;15.83;7.00;;;;;;;14.31;45.45;100625.38;5061655;28;20034;-69
2021/12/05 16:15:13;;;;;;;19.63;9.07;;;;;;;15.68;43.72;100629.94;5048211;28;20032;-70
2021/12/05 16:17:40;;;;;;;20.20;8.83;;;;;;;17.28;38.61;100628.34;5046407;28;20097;-70
2021/12/05 16:20:18;;;;;;;16.07;8.17;;;;;;;18.01;37.32;100628.84;5046951;28;20059;-69
2021/12/05 16:23:02;;;;;;;16.23;7.77;;;;;;;18.13;37.25;100636.22;5043197;28;20051;-70
2021/12/05 16:25:28;;;;;;;17.80;9.00;;;;;;;17.91;37.00;100635.41;5045680;28;20074;-70
2021/12/05 16:28:02;;;;;;;16.60;9.03;;;;;;;17.77;37.14;100644.78;5062769;28;20453;-70
2021/12/05 16:30:32;;;;;;;16.90;8.43;;;;;;;18.02;36.98;100646.41;5049332;28;20044;-70
2021/12/05 16:33:00;;;;;;;15.47;7.40;;;;;;;17.53;37.53;100652.00;5039041;28;20111;-70
2021/12/05 16:35:30;;;;;;;19.53;8.57;;;;;;;17.68;37.72;100661.06;5051895;28;20027;-70
2021/12/05 16:37:56;;;;;;;18.00;8.17;;;;;;;17.43;38.30;100658.56;5045085;28;20028;-70
2021/12/05 16:40:22;;;;;;;17.00;8.23;;;;;;;17.98;36.73;100658.03;5042804;28;20405;-70
2021/12/05 16:42:48;;;;;;;16.43;8.17;;;;;;;17.35;37.38;100669.47;5036742;28;20396;-69
2021/12/05 16:45:14;;;;;;;16.30;7.77;;;;;;;17.50;38.06;100673.22;5044475;28;20029;-69
2021/12/05 16:47:43;;;;;;;17.43;8.80;;;;;;;17.81;37.34;100672.81;5061890;28;20048;-70
2021/12/05 16:50:13;;;;;;;20.87;9.87;;;;;;;17.92;36.58;100684.75;5042342;28;20477;-70
2021/12/05 16:52:51;;;;;;;19.00;9.47;;;;;;;17.89;37.01;100683.06;5062752;28;20373;-70
2021/12/05 16:55:26;;;;;;;16.17;8.40;;;;;;;18.01;36.87;100694.06;5051147;28;20107;-70
2021/12/05 16:58:16;;;;;;;15.87;7.80;;;;;;;18.20;36.15;100704.69;5057148;28;20075;-70